sensor_id;sensor_type;location;lat;lon;timestamp;P1;durP1;ratioP1;P2;durP2;ratioP2
57395;SDS011;43222;52.912;6.940;2023-05-02T00:01:32;25.83;;;15.00;;
57395;SDS011;43222;52.912;6.940;2023-05-02T00:03:58;26.20;;;15.88;;
57395;SDS011;43222;52.912;6.940;2023-05-02T00:06:25;24.67;;;15.35;;
57395;SDS011;43222;52.912;6.940;2023-05-02T00:08:51;23.50;;;16.17;;
57395;SDS011;43222;52.912;6.940;2023-05-02T00:11:17;23.35;;;15.27;;
57395;SDS011;43222;52.912;6.940;2023-05-02T00:13:43;20.10;;;13.65;;
57395;SDS011;43222;52.912;6.940;2023-05-02T00:16:09;22.15;;;14.07;;
57395;SDS011;43222;52.912;6.940;2023-05-02T00:18:35;22.98;;;13.73;;
57395;SDS011;43222;52.912;6.940;2023-05-02T00:21:01;21.50;;;13.02;;
57395;SDS011;43222;52.912;6.940;2023-05-02T00:23:27;19.80;;;12.55;;
57395;SDS011;43222;52.912;6.940;2023-05-02T00:25:54;25.58;;;12.30;;
57395;SDS011;43222;52.912;6.940;2023-05-02T00:28:20;20.90;;;12.55;;
57395;SDS011;43222;52.912;6.940;2023-05-02T00:30:46;22.30;;;11.43;;
57395;SDS011;43222;52.912;6.940;2023-05-02T00:33:12;16.70;;;10.95;;
57395;SDS011;43222;52.912;6.940;2023-05-02T00:35:39;21.75;;;10.32;;
57395;SDS011;43222;52.912;6.940;2023-05-02T00:38:06;17.95;;;9.95;;
57395;SDS011;43222;52.912;6.940;2023-05-02T00:40:53;15.02;;;8.02;;
57395;SDS011;43222;52.912;6.940;2023-05-02T00:43:18;15.63;;;7.82;;
57395;SDS011;43222;52.912;6.940;2023-05-02T00:45:45;14.18;;;7.40;;
57395;SDS011;43222;52.912;6.940;2023-05-02T00:48:11;14.00;;;6.18;;
57395;SDS011;43222;52.912;6.940;2023-05-02T00:53:06;10.27;;;4.50;;
57395;SDS011;43222;52.912;6.940;2023-05-02T00:55:33;9.70;;;3.70;;
57395;SDS011;43222;52.912;6.940;2023-05-02T00:57:59;7.38;;;3.40;;
57395;SDS011;43222;52.912;6.940;2023-05-02T01:00:28;8.85;;;3.50;;
57395;SDS011;43222;52.912;6.940;2023-05-02T01:03:03;7.25;;;2.95;;
57395;SDS011;43222;52.912;6.940;2023-05-02T01:05:43;7.65;;;3.38;;
57395;SDS011;43222;52.912;6.940;2023-05-02T01:08:17;6.53;;;2.72;;
57395;SDS011;43222;52.912;6.940;2023-05-02T01:13:21;8.35;;;3.60;;
57395;SDS011;43222;52.912;6.940;2023-05-02T01:15:52;8.57;;;3.95;;
57395;SDS011;43222;52.912;6.940;2023-05-02T01:18:22;9.27;;;4.57;;
57395;SDS011;43222;52.912;6.940;2023-05-02T01:20:50;10.18;;;4.47;;
57395;SDS011;43222;52.912;6.940;2023-05-02T01:25:51;9.95;;;4.88;;
57395;SDS011;43222;52.912;6.940;2023-05-02T01:30:50;12.07;;;5.72;;
57395;SDS011;43222;52.912;6.940;2023-05-02T01:33:18;12.48;;;5.57;;
57395;SDS011;43222;52.912;6.940;2023-05-02T01:35:46;11.38;;;5.40;;
57395;SDS011;43222;52.912;6.940;2023-05-02T01:38:15;11.45;;;5.55;;
57395;SDS011;43222;52.912;6.940;2023-05-02T01:40:46;10.63;;;5.57;;
57395;SDS011;43222;52.912;6.940;2023-05-02T01:43:12;15.63;;;5.65;;
57395;SDS011;43222;52.912;6.940;2023-05-02T01:45:40;11.43;;;5.82;;
57395;SDS011;43222;52.912;6.940;2023-05-02T01:48:08;12.32;;;5.40;;
57395;SDS011;43222;52.912;6.940;2023-05-02T01:50:35;13.55;;;5.70;;
57395;SDS011;43222;52.912;6.940;2023-05-02T01:53:02;13.88;;;5.28;;
57395;SDS011;43222;52.912;6.940;2023-05-02T01:55:29;13.90;;;5.68;;
57395;SDS011;43222;52.912;6.940;2023-05-02T01:57:56;12.68;;;5.90;;
57395;SDS011;43222;52.912;6.940;2023-05-02T02:00:22;16.38;;;6.25;;
57395;SDS011;43222;52.912;6.940;2023-05-02T02:02:49;15.10;;;6.13;;
57395;SDS011;43222;52.912;6.940;2023-05-02T02:05:16;16.35;;;5.68;;
57395;SDS011;43222;52.912;6.940;2023-05-02T02:07:43;14.10;;;5.97;;
57395;SDS011;43222;52.912;6.940;2023-05-02T02:10:09;13.48;;;5.18;;
57395;SDS011;43222;52.912;6.940;2023-05-02T02:12:40;12.95;;;5.50;;
57395;SDS011;43222;52.912;6.940;2023-05-02T02:17:36;14.43;;;5.63;;
57395;SDS011;43222;52.912;6.940;2023-05-02T02:20:04;12.45;;;5.43;;
57395;SDS011;43222;52.912;6.940;2023-05-02T02:22:32;11.35;;;5.57;;
57395;SDS011;43222;52.912;6.940;2023-05-02T02:25:00;12.23;;;5.10;;
57395;SDS011;43222;52.912;6.940;2023-05-02T02:27:27;12.10;;;5.00;;
57395;SDS011;43222;52.912;6.940;2023-05-02T02:29:54;12.32;;;5.20;;
57395;SDS011;43222;52.912;6.940;2023-05-02T02:32:20;15.88;;;5.43;;
57395;SDS011;43222;52.912;6.940;2023-05-02T02:34:46;12.68;;;4.97;;
57395;SDS011;43222;52.912;6.940;2023-05-02T02:37:17;14.48;;;4.45;;
57395;SDS011;43222;52.912;6.940;2023-05-02T02:42:13;16.70;;;4.57;;
57395;SDS011;43222;52.912;6.940;2023-05-02T02:52:39;16.15;;;4.45;;
57395;SDS011;43222;52.912;6.940;2023-05-02T02:55:09;21.02;;;4.55;;
57395;SDS011;43222;52.912;6.940;2023-05-02T03:00:32;20.73;;;4.78;;
57395;SDS011;43222;52.912;6.940;2023-05-02T03:02:59;19.58;;;5.35;;
57395;SDS011;43222;52.912;6.940;2023-05-02T03:05:26;17.20;;;4.95;;
57395;SDS011;43222;52.912;6.940;2023-05-02T03:07:52;21.38;;;5.55;;
57395;SDS011;43222;52.912;6.940;2023-05-02T03:10:20;21.80;;;5.50;;
57395;SDS011;43222;52.912;6.940;2023-05-02T03:12:46;21.45;;;5.63;;
57395;SDS011;43222;52.912;6.940;2023-05-02T03:15:38;30.80;;;6.00;;
57395;SDS011;43222;52.912;6.940;2023-05-02T03:18:09;26.75;;;5.72;;
57395;SDS011;43222;52.912;6.940;2023-05-02T03:20:35;23.15;;;6.22;;
57395;SDS011;43222;52.912;6.940;2023-05-02T03:23:01;23.58;;;6.03;;
57395;SDS011;43222;52.912;6.940;2023-05-02T03:25:27;35.47;;;6.72;;
57395;SDS011;43222;52.912;6.940;2023-05-02T03:27:55;28.20;;;5.57;;
57395;SDS011;43222;52.912;6.940;2023-05-02T03:30:21;22.40;;;6.35;;
57395;SDS011;43222;52.912;6.940;2023-05-02T03:32:47;21.52;;;5.80;;
57395;SDS011;43222;52.912;6.940;2023-05-02T03:35:14;28.17;;;5.65;;
57395;SDS011;43222;52.912;6.940;2023-05-02T03:37:40;24.67;;;5.82;;
57395;SDS011;43222;52.912;6.940;2023-05-02T03:40:06;23.40;;;5.38;;
57395;SDS011;43222;52.912;6.940;2023-05-02T03:42:33;20.85;;;5.15;;
57395;SDS011;43222;52.912;6.940;2023-05-02T03:45:06;24.10;;;5.50;;
57395;SDS011;43222;52.912;6.940;2023-05-02T03:47:32;21.95;;;5.65;;
57395;SDS011;43222;52.912;6.940;2023-05-02T03:49:58;21.50;;;5.10;;
57395;SDS011;43222;52.912;6.940;2023-05-02T03:52:24;24.55;;;5.70;;
57395;SDS011;43222;52.912;6.940;2023-05-02T03:54:51;22.80;;;5.57;;
57395;SDS011;43222;52.912;6.940;2023-05-02T03:57:17;26.63;;;6.35;;
57395;SDS011;43222;52.912;6.940;2023-05-02T03:59:43;21.92;;;5.43;;
57395;SDS011;43222;52.912;6.940;2023-05-02T04:02:12;21.73;;;5.38;;
57395;SDS011;43222;52.912;6.940;2023-05-02T04:04:39;24.85;;;5.35;;
57395;SDS011;43222;52.912;6.940;2023-05-02T04:07:05;23.30;;;4.95;;
57395;SDS011;43222;52.912;6.940;2023-05-02T04:09:32;23.90;;;4.85;;
57395;SDS011;43222;52.912;6.940;2023-05-02T04:11:58;20.50;;;5.13;;
57395;SDS011;43222;52.912;6.940;2023-05-02T04:14:24;22.42;;;5.50;;
57395;SDS011;43222;52.912;6.940;2023-05-02T04:16:50;22.33;;;4.38;;
57395;SDS011;43222;52.912;6.940;2023-05-02T04:19:17;19.25;;;4.28;;
57395;SDS011;43222;52.912;6.940;2023-05-02T04:21:43;21.05;;;4.28;;
57395;SDS011;43222;52.912;6.940;2023-05-02T04:24:10;20.88;;;4.10;;
57395;SDS011;43222;52.912;6.940;2023-05-02T04:26:36;20.23;;;3.78;;
57395;SDS011;43222;52.912;6.940;2023-05-02T04:29:02;18.65;;;4.18;;
57395;SDS011;43222;52.912;6.940;2023-05-02T04:31:29;18.77;;;4.28;;
57395;SDS011;43222;52.912;6.940;2023-05-02T04:33:55;17.77;;;3.88;;
57395;SDS011;43222;52.912;6.940;2023-05-02T04:36:22;22.27;;;3.72;;
57395;SDS011;43222;52.912;6.940;2023-05-02T04:38:48;18.33;;;4.00;;
57395;SDS011;43222;52.912;6.940;2023-05-02T04:41:14;14.73;;;3.20;;
57395;SDS011;43222;52.912;6.940;2023-05-02T04:43:41;15.45;;;3.67;;
57395;SDS011;43222;52.912;6.940;2023-05-02T04:46:07;11.73;;;3.13;;
57395;SDS011;43222;52.912;6.940;2023-05-02T04:48:33;20.15;;;3.67;;
57395;SDS011;43222;52.912;6.940;2023-05-02T04:50:59;21.20;;;3.75;;
57395;SDS011;43222;52.912;6.940;2023-05-02T04:53:25;18.17;;;3.55;;
57395;SDS011;43222;52.912;6.940;2023-05-02T04:55:52;13.48;;;2.97;;
57395;SDS011;43222;52.912;6.940;2023-05-02T04:58:18;13.40;;;3.00;;
57395;SDS011;43222;52.912;6.940;2023-05-02T05:00:44;17.83;;;3.72;;
57395;SDS011;43222;52.912;6.940;2023-05-02T05:03:10;17.15;;;3.17;;
57395;SDS011;43222;52.912;6.940;2023-05-02T05:05:37;11.98;;;2.78;;
57395;SDS011;43222;52.912;6.940;2023-05-02T05:08:03;10.00;;;2.70;;
57395;SDS011;43222;52.912;6.940;2023-05-02T05:10:29;14.38;;;2.92;;
57395;SDS011;43222;52.912;6.940;2023-05-02T05:12:55;11.65;;;2.42;;
57395;SDS011;43222;52.912;6.940;2023-05-02T05:15:21;9.13;;;2.20;;
57395;SDS011;43222;52.912;6.940;2023-05-02T05:17:49;8.18;;;2.25;;
57395;SDS011;43222;52.912;6.940;2023-05-02T05:20:15;13.55;;;2.67;;
57395;SDS011;43222;52.912;6.940;2023-05-02T05:22:41;13.82;;;2.15;;
57395;SDS011;43222;52.912;6.940;2023-05-02T05:25:08;7.78;;;2.20;;
57395;SDS011;43222;52.912;6.940;2023-05-02T05:27:34;13.27;;;2.17;;
57395;SDS011;43222;52.912;6.940;2023-05-02T05:30:01;11.63;;;2.53;;
57395;SDS011;43222;52.912;6.940;2023-05-02T05:32:27;7.80;;;1.85;;
57395;SDS011;43222;52.912;6.940;2023-05-02T05:34:54;11.55;;;2.30;;
57395;SDS011;43222;52.912;6.940;2023-05-02T05:37:20;9.45;;;2.33;;
57395;SDS011;43222;52.912;6.940;2023-05-02T05:39:47;8.73;;;2.13;;
57395;SDS011;43222;52.912;6.940;2023-05-02T05:42:13;9.70;;;2.17;;
57395;SDS011;43222;52.912;6.940;2023-05-02T05:44:39;10.77;;;2.47;;
57395;SDS011;43222;52.912;6.940;2023-05-02T05:47:05;12.57;;;2.40;;
57395;SDS011;43222;52.912;6.940;2023-05-02T05:49:31;7.70;;;1.83;;
57395;SDS011;43222;52.912;6.940;2023-05-02T05:52:00;9.32;;;2.05;;
57395;SDS011;43222;52.912;6.940;2023-05-02T05:54:26;10.73;;;2.60;;
57395;SDS011;43222;52.912;6.940;2023-05-02T05:56:52;11.65;;;2.58;;
57395;SDS011;43222;52.912;6.940;2023-05-02T05:59:18;11.07;;;2.55;;
57395;SDS011;43222;52.912;6.940;2023-05-02T06:01:45;10.68;;;2.58;;
57395;SDS011;43222;52.912;6.940;2023-05-02T06:04:11;11.82;;;2.63;;
57395;SDS011;43222;52.912;6.940;2023-05-02T06:06:37;9.65;;;2.50;;
57395;SDS011;43222;52.912;6.940;2023-05-02T06:09:03;9.95;;;2.28;;
57395;SDS011;43222;52.912;6.940;2023-05-02T06:11:29;16.08;;;3.20;;
57395;SDS011;43222;52.912;6.940;2023-05-02T06:13:55;11.95;;;2.70;;
57395;SDS011;43222;52.912;6.940;2023-05-02T06:16:21;16.20;;;3.25;;
57395;SDS011;43222;52.912;6.940;2023-05-02T06:18:48;15.45;;;3.10;;
57395;SDS011;43222;52.912;6.940;2023-05-02T06:21:15;15.95;;;3.00;;
57395;SDS011;43222;52.912;6.940;2023-05-02T06:23:41;15.13;;;3.08;;
57395;SDS011;43222;52.912;6.940;2023-05-02T06:26:07;11.90;;;2.55;;
57395;SDS011;43222;52.912;6.940;2023-05-02T06:28:34;13.88;;;3.13;;
57395;SDS011;43222;52.912;6.940;2023-05-02T06:31:00;15.48;;;3.35;;
57395;SDS011;43222;52.912;6.940;2023-05-02T06:33:30;17.65;;;3.63;;
57395;SDS011;43222;52.912;6.940;2023-05-02T06:35:57;18.67;;;3.67;;
57395;SDS011;43222;52.912;6.940;2023-05-02T06:38:23;14.85;;;3.13;;
57395;SDS011;43222;52.912;6.940;2023-05-02T06:40:49;13.65;;;3.25;;
57395;SDS011;43222;52.912;6.940;2023-05-02T06:43:15;15.30;;;3.35;;
57395;SDS011;43222;52.912;6.940;2023-05-02T06:45:42;14.82;;;3.42;;
57395;SDS011;43222;52.912;6.940;2023-05-02T06:48:08;15.07;;;3.78;;
57395;SDS011;43222;52.912;6.940;2023-05-02T06:50:34;13.05;;;2.97;;
57395;SDS011;43222;52.912;6.940;2023-05-02T06:53:01;16.17;;;3.65;;
57395;SDS011;43222;52.912;6.940;2023-05-02T06:55:27;14.88;;;3.45;;
57395;SDS011;43222;52.912;6.940;2023-05-02T06:57:53;12.63;;;2.92;;
57395;SDS011;43222;52.912;6.940;2023-05-02T07:00:19;17.02;;;3.38;;
57395;SDS011;43222;52.912;6.940;2023-05-02T07:02:46;17.15;;;3.25;;
57395;SDS011;43222;52.912;6.940;2023-05-02T07:05:13;18.42;;;3.75;;
57395;SDS011;43222;52.912;6.940;2023-05-02T07:07:42;13.52;;;2.85;;
57395;SDS011;43222;52.912;6.940;2023-05-02T07:10:08;14.27;;;3.05;;
57395;SDS011;43222;52.912;6.940;2023-05-02T07:12:35;11.68;;;3.08;;
57395;SDS011;43222;52.912;6.940;2023-05-02T07:15:02;13.75;;;3.20;;
57395;SDS011;43222;52.912;6.940;2023-05-02T07:17:28;16.33;;;2.65;;
57395;SDS011;43222;52.912;6.940;2023-05-02T07:19:54;9.10;;;2.38;;
57395;SDS011;43222;52.912;6.940;2023-05-02T07:22:20;13.90;;;2.80;;
57395;SDS011;43222;52.912;6.940;2023-05-02T07:24:46;11.00;;;2.55;;
57395;SDS011;43222;52.912;6.940;2023-05-02T07:27:12;14.15;;;2.88;;
57395;SDS011;43222;52.912;6.940;2023-05-02T07:29:39;12.00;;;2.97;;
57395;SDS011;43222;52.912;6.940;2023-05-02T07:32:06;14.32;;;2.95;;
57395;SDS011;43222;52.912;6.940;2023-05-02T07:34:32;13.60;;;3.22;;
57395;SDS011;43222;52.912;6.940;2023-05-02T07:36:59;13.07;;;3.00;;
57395;SDS011;43222;52.912;6.940;2023-05-02T07:39:25;12.13;;;3.00;;
57395;SDS011;43222;52.912;6.940;2023-05-02T07:41:51;9.98;;;3.30;;
57395;SDS011;43222;52.912;6.940;2023-05-02T07:44:18;13.15;;;2.38;;
57395;SDS011;43222;52.912;6.940;2023-05-02T07:46:44;12.35;;;2.88;;
57395;SDS011;43222;52.912;6.940;2023-05-02T07:49:10;9.68;;;2.58;;
57395;SDS011;43222;52.912;6.940;2023-05-02T07:51:37;14.02;;;3.10;;
57395;SDS011;43222;52.912;6.940;2023-05-02T07:54:13;12.52;;;3.03;;
57395;SDS011;43222;52.912;6.940;2023-05-02T07:56:40;11.73;;;2.90;;
57395;SDS011;43222;52.912;6.940;2023-05-02T07:59:07;14.88;;;2.90;;
57395;SDS011;43222;52.912;6.940;2023-05-02T08:01:33;11.00;;;2.70;;
57395;SDS011;43222;52.912;6.940;2023-05-02T08:03:59;13.68;;;2.22;;
57395;SDS011;43222;52.912;6.940;2023-05-02T08:06:26;11.23;;;2.47;;
57395;SDS011;43222;52.912;6.940;2023-05-02T08:08:52;10.15;;;2.40;;
57395;SDS011;43222;52.912;6.940;2023-05-02T08:11:18;14.02;;;3.00;;
57395;SDS011;43222;52.912;6.940;2023-05-02T08:13:49;14.65;;;3.20;;
57395;SDS011;43222;52.912;6.940;2023-05-02T08:16:15;9.95;;;2.50;;
57395;SDS011;43222;52.912;6.940;2023-05-02T08:18:41;10.50;;;2.75;;
57395;SDS011;43222;52.912;6.940;2023-05-02T08:21:08;13.60;;;2.97;;
57395;SDS011;43222;52.912;6.940;2023-05-02T08:23:35;11.70;;;2.88;;
57395;SDS011;43222;52.912;6.940;2023-05-02T08:26:04;10.73;;;2.67;;
57395;SDS011;43222;52.912;6.940;2023-05-02T08:28:30;9.38;;;2.53;;
57395;SDS011;43222;52.912;6.940;2023-05-02T08:30:56;9.77;;;2.75;;
57395;SDS011;43222;52.912;6.940;2023-05-02T08:33:22;12.38;;;2.97;;
57395;SDS011;43222;52.912;6.940;2023-05-02T08:35:48;15.23;;;2.92;;
57395;SDS011;43222;52.912;6.940;2023-05-02T08:38:14;12.00;;;3.08;;
57395;SDS011;43222;52.912;6.940;2023-05-02T08:40:40;17.02;;;3.10;;
57395;SDS011;43222;52.912;6.940;2023-05-02T08:43:06;11.77;;;2.92;;
57395;SDS011;43222;52.912;6.940;2023-05-02T08:45:39;11.70;;;3.33;;
57395;SDS011;43222;52.912;6.940;2023-05-02T08:48:06;14.55;;;3.05;;
57395;SDS011;43222;52.912;6.940;2023-05-02T08:50:36;11.15;;;3.20;;
57395;SDS011;43222;52.912;6.940;2023-05-02T08:53:03;11.15;;;2.88;;
57395;SDS011;43222;52.912;6.940;2023-05-02T08:55:31;12.38;;;3.10;;
57395;SDS011;43222;52.912;6.940;2023-05-02T08:57:57;12.32;;;2.95;;
57395;SDS011;43222;52.912;6.940;2023-05-02T09:00:24;11.27;;;3.40;;
57395;SDS011;43222;52.912;6.940;2023-05-02T09:03:01;11.68;;;3.03;;
57395;SDS011;43222;52.912;6.940;2023-05-02T09:05:32;12.75;;;3.50;;
57395;SDS011;43222;52.912;6.940;2023-05-02T09:07:58;13.80;;;3.38;;
57395;SDS011;43222;52.912;6.940;2023-05-02T09:10:25;16.67;;;3.70;;
57395;SDS011;43222;52.912;6.940;2023-05-02T09:12:53;10.15;;;2.90;;
57395;SDS011;43222;52.912;6.940;2023-05-02T09:15:19;11.38;;;3.20;;
57395;SDS011;43222;52.912;6.940;2023-05-02T09:17:45;11.45;;;3.00;;
57395;SDS011;43222;52.912;6.940;2023-05-02T09:20:13;9.05;;;2.70;;
57395;SDS011;43222;52.912;6.940;2023-05-02T09:22:46;8.68;;;2.30;;
57395;SDS011;43222;52.912;6.940;2023-05-02T09:25:13;12.05;;;2.38;;
57395;SDS011;43222;52.912;6.940;2023-05-02T09:27:53;11.20;;;2.42;;
57395;SDS011;43222;52.912;6.940;2023-05-02T09:30:20;10.18;;;2.30;;
57395;SDS011;43222;52.912;6.940;2023-05-02T09:32:47;9.82;;;2.25;;
57395;SDS011;43222;52.912;6.940;2023-05-02T09:35:15;9.20;;;2.20;;
57395;SDS011;43222;52.912;6.940;2023-05-02T09:37:49;8.35;;;2.05;;
57395;SDS011;43222;52.912;6.940;2023-05-02T09:40:15;11.82;;;1.95;;
57395;SDS011;43222;52.912;6.940;2023-05-02T09:42:41;9.02;;;2.30;;
57395;SDS011;43222;52.912;6.940;2023-05-02T09:45:08;5.25;;;1.52;;
57395;SDS011;43222;52.912;6.940;2023-05-02T09:47:34;8.38;;;2.10;;
57395;SDS011;43222;52.912;6.940;2023-05-02T09:50:00;8.13;;;1.67;;
57395;SDS011;43222;52.912;6.940;2023-05-02T09:52:28;7.68;;;1.67;;
57395;SDS011;43222;52.912;6.940;2023-05-02T09:54:54;5.53;;;1.52;;
57395;SDS011;43222;52.912;6.940;2023-05-02T09:57:20;5.95;;;1.40;;
57395;SDS011;43222;52.912;6.940;2023-05-02T09:59:54;8.10;;;1.50;;
57395;SDS011;43222;52.912;6.940;2023-05-02T10:02:20;7.00;;;1.80;;
57395;SDS011;43222;52.912;6.940;2023-05-02T10:04:47;6.78;;;1.50;;
57395;SDS011;43222;52.912;6.940;2023-05-02T10:07:13;8.15;;;1.95;;
57395;SDS011;43222;52.912;6.940;2023-05-02T10:09:42;7.22;;;1.40;;
57395;SDS011;43222;52.912;6.940;2023-05-02T10:12:14;9.70;;;1.55;;
57395;SDS011;43222;52.912;6.940;2023-05-02T10:14:42;11.02;;;1.45;;
57395;SDS011;43222;52.912;6.940;2023-05-02T10:17:11;7.65;;;1.50;;
57395;SDS011;43222;52.912;6.940;2023-05-02T10:19:42;8.45;;;1.60;;
57395;SDS011;43222;52.912;6.940;2023-05-02T10:22:10;8.20;;;1.70;;
57395;SDS011;43222;52.912;6.940;2023-05-02T10:24:37;7.38;;;1.50;;
57395;SDS011;43222;52.912;6.940;2023-05-02T10:27:05;6.28;;;1.60;;
57395;SDS011;43222;52.912;6.940;2023-05-02T10:29:31;5.13;;;1.40;;
57395;SDS011;43222;52.912;6.940;2023-05-02T10:31:59;8.05;;;1.65;;
57395;SDS011;43222;52.912;6.940;2023-05-02T10:34:26;5.68;;;1.42;;
57395;SDS011;43222;52.912;6.940;2023-05-02T10:36:53;6.22;;;1.50;;
57395;SDS011;43222;52.912;6.940;2023-05-02T10:39:20;8.07;;;1.70;;
57395;SDS011;43222;52.912;6.940;2023-05-02T10:41:48;8.93;;;1.58;;
57395;SDS011;43222;52.912;6.940;2023-05-02T10:44:27;5.82;;;1.35;;
57395;SDS011;43222;52.912;6.940;2023-05-02T10:46:56;6.30;;;1.40;;
57395;SDS011;43222;52.912;6.940;2023-05-02T10:49:22;8.05;;;1.63;;
57395;SDS011;43222;52.912;6.940;2023-05-02T10:51:51;6.63;;;1.45;;
57395;SDS011;43222;52.912;6.940;2023-05-02T10:54:18;6.65;;;1.40;;
57395;SDS011;43222;52.912;6.940;2023-05-02T10:59:30;10.43;;;1.73;;
57395;SDS011;43222;52.912;6.940;2023-05-02T11:01:57;9.85;;;1.55;;
57395;SDS011;43222;52.912;6.940;2023-05-02T11:04:24;8.13;;;1.90;;
57395;SDS011;43222;52.912;6.940;2023-05-02T11:11:50;8.20;;;1.60;;
57395;SDS011;43222;52.912;6.940;2023-05-02T11:19:25;7.40;;;1.55;;
57395;SDS011;43222;52.912;6.940;2023-05-02T11:21:51;8.68;;;1.73;;
57395;SDS011;43222;52.912;6.940;2023-05-02T11:32:20;10.00;;;1.70;;
57395;SDS011;43222;52.912;6.940;2023-05-02T11:34:49;6.40;;;1.75;;
57395;SDS011;43222;52.912;6.940;2023-05-02T11:37:17;6.90;;;1.50;;
57395;SDS011;43222;52.912;6.940;2023-05-02T11:39:43;7.03;;;1.60;;
57395;SDS011;43222;52.912;6.940;2023-05-02T11:42:29;8.82;;;1.48;;
57395;SDS011;43222;52.912;6.940;2023-05-02T11:44:56;7.20;;;1.25;;
57395;SDS011;43222;52.912;6.940;2023-05-02T11:47:22;7.30;;;1.40;;
57395;SDS011;43222;52.912;6.940;2023-05-02T11:49:48;11.13;;;1.50;;
57395;SDS011;43222;52.912;6.940;2023-05-02T11:52:14;7.57;;;1.42;;
57395;SDS011;43222;52.912;6.940;2023-05-02T11:54:40;7.65;;;1.40;;
57395;SDS011;43222;52.912;6.940;2023-05-02T11:57:06;4.75;;;1.33;;
57395;SDS011;43222;52.912;6.940;2023-05-02T11:59:49;5.82;;;1.30;;
57395;SDS011;43222;52.912;6.940;2023-05-02T12:02:16;7.85;;;1.38;;
57395;SDS011;43222;52.912;6.940;2023-05-02T12:04:42;5.60;;;1.60;;
57395;SDS011;43222;52.912;6.940;2023-05-02T12:07:09;7.00;;;1.40;;
57395;SDS011;43222;52.912;6.940;2023-05-02T12:09:35;6.93;;;1.27;;
57395;SDS011;43222;52.912;6.940;2023-05-02T12:12:01;7.35;;;1.70;;
57395;SDS011;43222;52.912;6.940;2023-05-02T12:14:28;6.53;;;1.55;;
57395;SDS011;43222;52.912;6.940;2023-05-02T12:16:56;5.25;;;1.30;;
57395;SDS011;43222;52.912;6.940;2023-05-02T12:19:23;6.43;;;1.30;;
57395;SDS011;43222;52.912;6.940;2023-05-02T12:21:49;7.82;;;1.65;;
57395;SDS011;43222;52.912;6.940;2023-05-02T12:24:15;9.02;;;1.75;;
57395;SDS011;43222;52.912;6.940;2023-05-02T12:26:42;7.28;;;1.60;;
57395;SDS011;43222;52.912;6.940;2023-05-02T12:29:08;7.88;;;1.55;;
57395;SDS011;43222;52.912;6.940;2023-05-02T12:31:34;10.45;;;1.90;;
57395;SDS011;43222;52.912;6.940;2023-05-02T12:34:01;9.57;;;1.95;;
57395;SDS011;43222;52.912;6.940;2023-05-02T12:36:27;8.52;;;1.77;;
57395;SDS011;43222;52.912;6.940;2023-05-02T12:38:54;8.23;;;1.65;;
57395;SDS011;43222;52.912;6.940;2023-05-02T12:41:35;6.68;;;1.60;;
57395;SDS011;43222;52.912;6.940;2023-05-02T12:44:02;10.05;;;1.65;;
57395;SDS011;43222;52.912;6.940;2023-05-02T12:46:28;11.40;;;1.60;;
57395;SDS011;43222;52.912;6.940;2023-05-02T12:49:02;10.98;;;1.80;;
57395;SDS011;43222;52.912;6.940;2023-05-02T12:51:29;7.78;;;1.73;;
57395;SDS011;43222;52.912;6.940;2023-05-02T12:53:56;8.30;;;1.80;;
57395;SDS011;43222;52.912;6.940;2023-05-02T12:56:22;6.07;;;1.83;;
57395;SDS011;43222;52.912;6.940;2023-05-02T12:58:51;6.40;;;1.52;;
57395;SDS011;43222;52.912;6.940;2023-05-02T13:01:17;7.10;;;1.73;;
57395;SDS011;43222;52.912;6.940;2023-05-02T13:03:43;5.97;;;1.35;;
57395;SDS011;43222;52.912;6.940;2023-05-02T13:06:09;5.97;;;1.77;;
57395;SDS011;43222;52.912;6.940;2023-05-02T13:08:35;5.90;;;1.30;;
57395;SDS011;43222;52.912;6.940;2023-05-02T13:11:02;6.53;;;1.40;;
57395;SDS011;43222;52.912;6.940;2023-05-02T13:13:28;6.38;;;1.40;;
57395;SDS011;43222;52.912;6.940;2023-05-02T13:15:55;7.35;;;1.48;;
57395;SDS011;43222;52.912;6.940;2023-05-02T13:18:21;5.75;;;1.10;;
57395;SDS011;43222;52.912;6.940;2023-05-02T13:20:47;6.47;;;1.30;;
57395;SDS011;43222;52.912;6.940;2023-05-02T13:23:13;6.15;;;1.52;;
57395;SDS011;43222;52.912;6.940;2023-05-02T13:25:40;5.88;;;1.13;;
57395;SDS011;43222;52.912;6.940;2023-05-02T13:28:07;5.38;;;1.10;;
57395;SDS011;43222;52.912;6.940;2023-05-02T13:30:33;7.57;;;1.95;;
57395;SDS011;43222;52.912;6.940;2023-05-02T13:32:59;7.10;;;1.25;;
57395;SDS011;43222;52.912;6.940;2023-05-02T13:35:26;4.82;;;1.10;;
57395;SDS011;43222;52.912;6.940;2023-05-02T13:37:52;4.55;;;1.10;;
57395;SDS011;43222;52.912;6.940;2023-05-02T13:40:18;4.35;;;1.10;;
57395;SDS011;43222;52.912;6.940;2023-05-02T13:42:44;8.45;;;1.13;;
57395;SDS011;43222;52.912;6.940;2023-05-02T13:45:11;2.92;;;0.82;;
57395;SDS011;43222;52.912;6.940;2023-05-02T13:47:37;4.93;;;0.70;;
57395;SDS011;43222;52.912;6.940;2023-05-02T13:50:03;3.75;;;0.82;;
57395;SDS011;43222;52.912;6.940;2023-05-02T13:52:29;4.15;;;0.80;;
57395;SDS011;43222;52.912;6.940;2023-05-02T13:54:55;2.35;;;0.60;;
57395;SDS011;43222;52.912;6.940;2023-05-02T13:57:21;4.22;;;0.73;;
57395;SDS011;43222;52.912;6.940;2023-05-02T13:59:47;4.00;;;1.00;;
57395;SDS011;43222;52.912;6.940;2023-05-02T14:02:13;5.55;;;0.88;;
57395;SDS011;43222;52.912;6.940;2023-05-02T14:04:39;2.67;;;0.80;;
57395;SDS011;43222;52.912;6.940;2023-05-02T14:07:05;4.22;;;1.08;;
57395;SDS011;43222;52.912;6.940;2023-05-02T14:09:31;3.35;;;0.70;;
57395;SDS011;43222;52.912;6.940;2023-05-02T14:11:57;3.58;;;0.82;;
57395;SDS011;43222;52.912;6.940;2023-05-02T14:14:23;4.72;;;0.65;;
57395;SDS011;43222;52.912;6.940;2023-05-02T14:16:50;3.10;;;0.60;;
57395;SDS011;43222;52.912;6.940;2023-05-02T14:19:16;5.78;;;1.00;;
57395;SDS011;43222;52.912;6.940;2023-05-02T14:21:42;2.78;;;0.70;;
57395;SDS011;43222;52.912;6.940;2023-05-02T14:24:08;4.47;;;0.80;;
57395;SDS011;43222;52.912;6.940;2023-05-02T14:26:36;6.13;;;0.90;;
57395;SDS011;43222;52.912;6.940;2023-05-02T14:29:02;4.43;;;1.00;;
57395;SDS011;43222;52.912;6.940;2023-05-02T14:31:28;4.25;;;0.80;;
57395;SDS011;43222;52.912;6.940;2023-05-02T14:33:55;4.75;;;1.02;;
57395;SDS011;43222;52.912;6.940;2023-05-02T14:36:21;6.30;;;1.10;;
57395;SDS011;43222;52.912;6.940;2023-05-02T14:38:47;5.97;;;1.30;;
57395;SDS011;43222;52.912;6.940;2023-05-02T14:41:13;4.65;;;1.00;;
57395;SDS011;43222;52.912;6.940;2023-05-02T14:43:39;5.30;;;1.10;;
57395;SDS011;43222;52.912;6.940;2023-05-02T14:46:05;5.13;;;1.02;;
57395;SDS011;43222;52.912;6.940;2023-05-02T14:48:31;4.30;;;1.10;;
57395;SDS011;43222;52.912;6.940;2023-05-02T14:50:57;7.18;;;1.30;;
57395;SDS011;43222;52.912;6.940;2023-05-02T14:53:25;8.68;;;1.48;;
57395;SDS011;43222;52.912;6.940;2023-05-02T14:55:51;5.68;;;1.08;;
57395;SDS011;43222;52.912;6.940;2023-05-02T14:58:17;4.70;;;0.95;;
57395;SDS011;43222;52.912;6.940;2023-05-02T15:00:44;5.65;;;1.10;;
57395;SDS011;43222;52.912;6.940;2023-05-02T15:03:11;5.28;;;1.00;;
57395;SDS011;43222;52.912;6.940;2023-05-02T15:05:37;8.48;;;1.00;;
57395;SDS011;43222;52.912;6.940;2023-05-02T15:08:04;5.15;;;0.90;;
57395;SDS011;43222;52.912;6.940;2023-05-02T15:10:30;4.07;;;0.88;;
57395;SDS011;43222;52.912;6.940;2023-05-02T15:12:58;5.20;;;0.82;;
57395;SDS011;43222;52.912;6.940;2023-05-02T15:15:24;4.75;;;1.00;;
57395;SDS011;43222;52.912;6.940;2023-05-02T15:17:50;4.75;;;0.90;;
57395;SDS011;43222;52.912;6.940;2023-05-02T15:20:17;6.70;;;0.85;;
57395;SDS011;43222;52.912;6.940;2023-05-02T15:22:43;8.20;;;1.00;;
57395;SDS011;43222;52.912;6.940;2023-05-02T15:25:09;4.50;;;0.88;;
57395;SDS011;43222;52.912;6.940;2023-05-02T15:27:35;5.40;;;1.00;;